KELD/ELD METAR and TAF weather

Enter ICAO airport designator
Station Type Date Time Source
KELD METAR 2018/12/13 15:41 UTC NOAA

KELD 131541Z AUTO 13007KT 10SM -RA SCT014 BKN019 OVC034 13/13 A2987 RMK AO2 P0000 T01330133


Station Type Date Time Source
KELD Decoded METAR 2018/12/13 15:41 UTC NOAA

SOUTH ARKANSAS REGIONAL, AR, United States (KELD) 33-13N 092-49W 81M
Dec 13, 2018 - 10:41 AM EST / 2018.12.13 1541 UTC
Wind: from the SE (130 degrees) at 8 MPH (7 KT):0
Visibility: 10 mile(s):0
Sky conditions: overcast
Weather: light rain
Precipitation last hour: A trace
Temperature: 55.9 F (13.3 C)
Dew Point: 55.9 F (13.3 C)
Relative Humidity: 100%
Pressure (altimeter): 29.87 in. Hg (1011 hPa)
ob: KELD 131541Z AUTO 13007KT 10SM -RA SCT014 BKN019 OVC034 13/13 A2987 RMK AO2 P0000 T01330133
cycle: 15

Station Type Date Time Source
KELD TAF 2018/12/13 12:36 UTC NOAA

TAF KELD 131133Z 1312/1412 14007KT P6SM SCT100
FM131600 15012KT P6SM VCTS OVC025CB
TEMPO 1316/1320 5SM TSRA BR OVC010CB
FM140400 09006KT P6SM -RA VCTS OVC010CB


Example: see airport list